createdAt,value
2018-04-28T00:01:33.378Z,57.40
2018-04-28T00:04:01.046Z,57.30
2018-04-28T00:06:28.744Z,57.60
2018-04-28T00:08:57.191Z,57.90
2018-04-28T00:11:24.876Z,57.80
2018-04-28T00:13:53.310Z,58.40
2018-04-28T00:16:29.761Z,58.00
2018-04-28T00:19:03.183Z,58.00
2018-04-28T00:21:30.869Z,58.20
2018-04-28T00:23:58.569Z,58.30
2018-04-28T00:26:26.252Z,58.70
2018-04-28T00:28:53.929Z,58.50
2018-04-28T00:31:25.399Z,58.20
2018-04-28T00:33:53.109Z,58.30
2018-04-28T00:36:27.340Z,58.40
2018-04-28T00:38:56.922Z,58.20
2018-04-28T00:41:25.383Z,58.50
2018-04-28T00:43:53.071Z,58.40
2018-04-28T00:46:24.240Z,58.50
2018-04-28T00:49:09.576Z,58.50
2018-04-28T00:51:37.247Z,58.60
2018-04-28T00:54:07.461Z,59.00
2018-04-28T00:56:35.126Z,58.90
2018-04-28T00:59:03.590Z,58.90
2018-04-28T01:01:37.204Z,58.80
2018-04-28T01:04:21.715Z,58.90
2018-04-28T01:06:49.404Z,59.20
2018-04-28T01:09:17.984Z,58.90
2018-04-28T01:11:45.678Z,59.20
2018-04-28T01:14:14.739Z,59.60
2018-04-28T01:16:53.378Z,59.50
2018-04-28T01:19:26.879Z,59.50
2018-04-28T01:21:55.154Z,59.80
2018-04-28T01:24:24.700Z,60.00
2018-04-28T01:27:01.126Z,60.00
2018-04-28T01:29:28.816Z,59.80
2018-04-28T01:31:58.133Z,59.60
2018-04-28T01:34:29.749Z,59.50
2018-04-28T01:37:03.373Z,59.60
2018-04-28T01:39:42.671Z,59.80
2018-04-28T01:42:10.355Z,59.70
2018-04-28T01:44:38.904Z,59.60
2018-04-28T01:47:09.487Z,59.70
2018-04-28T01:49:43.772Z,59.70
2018-04-28T01:52:12.176Z,60.30
2018-04-28T01:54:45.580Z,59.70
2018-04-28T01:57:23.924Z,59.70
2018-04-28T01:59:55.516Z,59.70
2018-04-28T02:02:25.796Z,59.80
2018-04-28T02:04:53.463Z,59.90
2018-04-28T02:07:21.177Z,59.90
2018-04-28T02:09:51.675Z,59.80
2018-04-28T02:12:22.039Z,59.90
2018-04-28T02:14:49.706Z,59.90
2018-04-28T02:17:18.126Z,60.90
2018-04-28T02:19:45.836Z,60.10
2018-04-28T02:22:13.496Z,60.10
2018-04-28T02:24:41.974Z,60.00
2018-04-28T02:27:20.298Z,60.20
2018-04-28T02:29:49.796Z,60.50
2018-04-28T02:32:20.367Z,60.90
2018-04-28T02:34:49.740Z,61.00
2018-04-28T02:37:19.203Z,61.30
2018-04-28T02:39:46.878Z,61.10
2018-04-28T02:42:14.581Z,61.00
2018-04-28T02:44:42.256Z,60.90
2018-04-28T02:47:09.972Z,60.90
2018-04-28T02:49:37.668Z,60.90
2018-04-28T02:52:10.890Z,61.30
2018-04-28T02:54:41.352Z,61.20
2018-04-28T02:57:09.601Z,61.20
2018-04-28T02:59:42.264Z,61.50
2018-04-28T03:02:09.936Z,61.50
2018-04-28T03:04:47.515Z,61.40
2018-04-28T03:07:16.982Z,61.30
2018-04-28T03:09:44.644Z,61.10
2018-04-28T03:12:13.847Z,61.10
2018-04-28T03:14:41.294Z,61.30
2018-04-28T03:17:09.348Z,61.70
2018-04-28T03:19:39.691Z,61.90
2018-04-28T03:22:07.160Z,61.70
2018-04-28T03:24:40.407Z,61.80
2018-04-28T03:27:08.652Z,62.00
2018-04-28T03:29:36.703Z,62.00
2018-04-28T03:32:05.079Z,62.70
2018-04-28T03:34:33.496Z,62.10
2018-04-28T03:37:03.644Z,62.30
2018-04-28T03:39:37.924Z,62.30
2018-04-28T03:42:09.931Z,62.40
2018-04-28T03:44:43.235Z,62.30
2018-04-28T03:47:10.678Z,62.70
2018-04-28T03:49:38.135Z,63.00
2018-04-28T03:52:11.569Z,63.10
2018-04-28T03:54:40.959Z,63.30
2018-04-28T03:57:27.197Z,63.10
2018-04-28T04:00:01.342Z,63.80
2018-04-28T04:02:34.605Z,63.50
2018-04-28T04:05:05.603Z,64.60
2018-04-28T04:07:33.906Z,63.70
2018-04-28T04:10:07.143Z,63.70
2018-04-28T04:12:35.502Z,63.80
2018-04-28T04:15:09.744Z,63.80
2018-04-28T04:17:40.093Z,63.80
2018-04-28T04:20:10.345Z,64.30
2018-04-28T04:22:42.540Z,64.20
2018-04-28T04:25:16.403Z,65.30
2018-04-28T04:27:43.867Z,64.50
2018-04-28T04:30:17.274Z,64.60
2018-04-28T04:32:44.755Z,64.70
2018-04-28T04:35:15.901Z,64.60
2018-04-28T04:37:45.994Z,64.50
2018-04-28T04:40:20.171Z,64.70
2018-04-28T04:42:47.671Z,64.60
2018-04-28T04:45:20.999Z,64.90
2018-04-28T04:47:54.364Z,65.10
2018-04-28T04:50:26.701Z,65.10
2018-04-28T04:52:57.039Z,65.20
2018-04-28T04:55:28.507Z,65.10
2018-04-28T04:57:55.983Z,64.90
2018-04-28T05:00:24.185Z,65.40
2018-04-28T05:02:57.542Z,65.20
2018-04-28T05:05:25.803Z,65.20
2018-04-28T05:07:53.250Z,65.10
2018-04-28T05:10:24.596Z,64.80
2018-04-28T05:12:52.695Z,64.80
2018-04-28T05:15:35.019Z,64.90
2018-04-28T05:18:09.015Z,64.80
2018-04-28T05:20:42.419Z,64.80
2018-04-28T05:23:10.777Z,64.80
2018-04-28T05:25:40.192Z,64.90
2018-04-28T05:28:11.432Z,64.80
2018-04-28T05:30:38.904Z,64.60
2018-04-28T05:33:09.294Z,64.60
2018-04-28T05:35:43.411Z,64.40
2018-04-28T05:38:16.831Z,64.40
2018-04-28T05:40:45.962Z,64.30
2018-04-28T05:43:19.240Z,64.40
2018-04-28T05:45:53.444Z,64.10
2018-04-28T05:48:22.676Z,64.00
2018-04-28T05:51:07.562Z,63.80
2018-04-28T05:53:40.856Z,63.80
2018-04-28T05:56:12.143Z,63.60
2018-04-28T05:58:45.429Z,63.30
2018-04-28T06:01:18.849Z,63.10
2018-04-28T06:03:52.283Z,62.80
2018-04-28T06:06:21.687Z,62.60
2018-04-28T06:08:49.175Z,62.40
2018-04-28T06:11:20.442Z,62.40
2018-04-28T06:13:53.745Z,62.20
2018-04-28T06:16:21.961Z,62.00
2018-04-28T06:18:53.363Z,61.90
2018-04-28T06:21:20.818Z,61.70
2018-04-28T06:23:48.283Z,61.60
2018-04-28T06:26:15.776Z,61.40
2018-04-28T06:28:43.249Z,61.30
2018-04-28T06:31:10.722Z,61.30
2018-04-28T06:33:38.207Z,61.20
2018-04-28T06:36:05.669Z,61.00
2018-04-28T06:38:33.148Z,60.90
2018-04-28T06:41:01.408Z,60.60
2018-04-28T06:43:28.875Z,60.50
2018-04-28T06:45:57.102Z,60.40
2018-04-28T06:48:24.579Z,59.60
2018-04-28T06:50:52.049Z,59.70
2018-04-28T06:53:19.540Z,59.60
2018-04-28T06:55:47.779Z,59.60
2018-04-28T06:58:15.222Z,59.50
2018-04-28T07:00:42.691Z,59.50
2018-04-28T07:03:10.138Z,59.40
2018-04-28T07:05:37.607Z,59.40
2018-04-28T07:08:05.067Z,59.30
2018-04-28T07:10:32.533Z,59.40
2018-04-28T07:12:59.982Z,59.40
2018-04-28T07:15:27.466Z,59.20
2018-04-28T07:17:55.675Z,59.20
2018-04-28T07:20:23.165Z,59.20
2018-04-28T07:22:50.642Z,59.10
2018-04-28T07:25:18.166Z,58.70
2018-04-28T07:27:45.619Z,58.30
2018-04-28T07:30:13.112Z,58.00
2018-04-28T07:32:40.551Z,58.00
2018-04-28T07:35:08.007Z,58.20
2018-04-28T07:37:35.895Z,58.00
2018-04-28T07:40:03.355Z,57.80
2018-04-28T07:42:30.835Z,57.20
2018-04-28T07:44:59.064Z,56.70
2018-04-28T07:47:26.551Z,56.60
2018-04-28T07:49:53.999Z,56.20
2018-04-28T07:52:21.533Z,56.20
2018-04-28T07:54:49.064Z,56.10
2018-04-28T07:57:17.297Z,55.40
2018-04-28T07:59:44.776Z,55.40
2018-04-28T08:02:12.210Z,55.40
2018-04-28T08:04:39.683Z,55.70
2018-04-28T08:07:07.239Z,54.80
2018-04-28T08:09:35.395Z,54.40
2018-04-28T08:12:02.848Z,54.30
2018-04-28T08:14:30.290Z,54.30
2018-04-28T08:16:57.763Z,54.60
2018-04-28T08:19:25.236Z,54.50
2018-04-28T08:21:52.730Z,54.50
2018-04-28T08:24:20.949Z,53.00
2018-04-28T08:26:49.169Z,52.80
2018-04-28T08:29:17.413Z,52.30
2018-04-28T08:31:44.859Z,52.20
2018-04-28T08:34:12.307Z,52.90
2018-04-28T08:36:39.802Z,53.30
2018-04-28T08:39:07.259Z,53.50
2018-04-28T08:41:34.726Z,52.90
2018-04-28T08:44:02.962Z,52.30
2018-04-28T08:46:30.418Z,52.20
2018-04-28T08:48:58.652Z,52.00
2018-04-28T08:51:26.871Z,52.50
2018-04-28T08:53:54.339Z,52.40
2018-04-28T08:56:21.804Z,52.00
2018-04-28T08:58:49.279Z,51.50
2018-04-28T09:01:16.750Z,51.90
2018-04-28T09:03:45.053Z,51.90
2018-04-28T10:28:09.777Z,51.30
2018-04-28T10:30:38.279Z,51.80
2018-04-28T10:33:05.943Z,51.80
2018-04-28T10:35:33.643Z,51.50
2018-04-28T10:38:01.319Z,51.30
2018-04-28T10:40:29.012Z,52.10
2018-04-28T10:42:57.443Z,51.70
2018-04-28T10:45:25.152Z,51.60
2018-04-28T10:47:53.578Z,51.10
2018-04-28T10:50:22.030Z,50.50
2018-04-28T10:52:49.719Z,50.20
2018-04-28T10:55:17.387Z,50.00
2018-04-28T10:57:45.104Z,46.10
2018-04-28T11:00:13.543Z,47.90
2018-04-28T11:02:41.198Z,47.90
2018-04-28T11:05:08.878Z,46.20
2018-04-28T11:07:36.629Z,46.40
2018-04-28T11:10:04.307Z,45.70
2018-04-28T11:12:31.989Z,44.20
2018-04-28T11:14:59.687Z,44.00
2018-04-28T11:17:27.367Z,43.80
2018-04-28T11:19:55.094Z,43.70
2018-04-28T11:22:22.711Z,44.10
2018-04-28T11:24:50.416Z,44.80
2018-04-28T11:27:18.847Z,44.90
2018-04-28T11:29:46.514Z,45.50
2018-04-28T11:32:14.207Z,45.20
2018-04-28T11:34:41.911Z,45.30
2018-04-28T11:37:09.597Z,46.40
2018-04-28T11:39:37.266Z,46.40
2018-04-28T11:42:04.947Z,44.90
2018-04-28T11:44:32.615Z,45.20
2018-04-28T11:47:00.308Z,45.50
2018-04-28T11:49:27.978Z,44.70
2018-04-28T11:51:55.667Z,44.60
2018-04-28T11:54:23.343Z,44.60
2018-04-28T12:11:13.913Z,55.30
2018-04-28T12:13:42.158Z,51.50
2018-04-28T12:16:11.136Z,46.30
2018-04-28T12:18:39.377Z,46.20
2018-04-28T12:21:07.643Z,46.30
2018-04-28T12:23:36.642Z,45.20
2018-04-28T12:26:04.915Z,45.10
2018-04-28T12:28:33.141Z,45.50
2018-04-28T12:31:02.143Z,44.80
2018-04-28T12:33:31.130Z,43.00
2018-04-28T12:36:00.164Z,43.40
2018-04-28T12:38:28.351Z,43.30
2018-04-28T12:40:57.416Z,43.90
2018-04-28T12:43:26.399Z,43.70
2018-04-28T12:45:54.626Z,43.60
2018-04-28T12:48:22.869Z,43.90
2018-04-28T12:50:51.158Z,43.10
2018-04-28T12:53:19.311Z,42.50
2018-04-28T12:55:47.561Z,43.50
2018-04-28T12:58:16.665Z,42.80
2018-04-28T13:00:44.956Z,42.80
2018-04-28T13:03:13.265Z,42.00
2018-04-28T13:05:41.478Z,42.00
2018-04-28T13:08:09.729Z,42.30
2018-04-28T13:10:37.977Z,41.60
2018-04-28T13:13:06.239Z,41.20
2018-04-28T13:15:34.454Z,40.70
2018-04-28T13:18:02.713Z,40.10
2018-04-28T13:20:30.941Z,40.60
2018-04-28T13:22:59.188Z,41.10
2018-04-28T13:25:27.440Z,40.70
2018-04-28T13:27:55.692Z,40.30
2018-04-28T13:30:23.944Z,40.20
2018-04-28T13:32:52.200Z,39.60
2018-04-28T13:35:20.442Z,39.60
2018-04-28T13:37:49.034Z,39.70
2018-04-28T13:40:17.250Z,39.80
2018-04-28T13:42:45.473Z,40.20
2018-04-28T13:45:13.802Z,40.90
2018-04-28T13:47:42.051Z,40.40
2018-04-28T13:50:10.964Z,39.30
2018-04-28T13:52:39.217Z,39.30
2018-04-28T13:55:07.435Z,38.30
2018-04-28T13:57:35.679Z,38.30
2018-04-28T14:00:03.912Z,38.40
2018-04-28T14:02:32.172Z,38.80
2018-04-28T14:05:00.411Z,37.80
2018-04-28T14:07:29.296Z,37.30
2018-04-28T14:09:57.529Z,36.50
2018-04-28T14:12:25.744Z,37.20
2018-04-28T14:14:55.011Z,37.50
2018-04-28T14:17:23.309Z,36.40
2018-04-28T14:19:51.554Z,36.30
2018-04-28T14:22:19.799Z,34.30
2018-04-28T14:24:48.057Z,34.80
2018-04-28T14:27:16.308Z,34.00
2018-04-28T14:29:44.586Z,33.40
2018-04-28T14:32:12.841Z,34.40
2018-04-28T14:34:41.091Z,34.20
2018-04-28T14:37:09.359Z,34.70
2018-04-28T14:39:37.612Z,34.60
2018-04-28T14:42:05.873Z,34.50
2018-04-28T14:44:34.106Z,33.50
2018-04-28T14:47:02.359Z,33.20
2018-04-28T14:49:30.572Z,33.10
2018-04-28T14:51:58.833Z,33.20
2018-04-28T14:54:27.075Z,33.80
2018-04-28T14:56:55.340Z,34.30
2018-04-28T14:59:23.604Z,34.10
2018-04-28T15:01:51.815Z,34.00
2018-04-28T15:04:20.054Z,34.50
2018-04-28T15:06:48.296Z,34.60
2018-04-28T15:09:16.512Z,34.80
2018-04-28T15:11:44.745Z,35.30
2018-04-28T15:14:12.980Z,34.60
2018-04-28T15:16:41.218Z,34.80
2018-04-28T15:19:09.496Z,34.50
2018-04-28T15:21:37.737Z,34.50
2018-04-28T15:24:06.759Z,34.50
2018-04-28T15:26:35.001Z,34.40
2018-04-28T15:29:03.307Z,34.40
2018-04-28T15:31:31.526Z,33.80
2018-04-28T15:33:59.763Z,34.50
2018-04-28T15:36:28.004Z,34.40
2018-04-28T15:38:56.295Z,34.40
2018-04-28T15:41:25.283Z,34.20
2018-04-28T15:43:53.547Z,34.20
2018-04-28T15:46:22.568Z,34.50
2018-04-28T15:48:51.588Z,35.10
2018-04-28T15:51:19.822Z,35.00
2018-04-28T15:53:48.154Z,35.30
2018-04-28T15:56:16.408Z,34.40
2018-04-28T15:58:44.717Z,34.70
2018-04-28T16:01:12.943Z,35.00
2018-04-28T16:03:41.968Z,35.10
2018-04-28T16:06:10.300Z,35.00
2018-04-28T16:08:38.616Z,35.00
2018-04-28T16:11:06.827Z,35.40
2018-04-28T16:13:35.078Z,35.40
2018-04-28T16:16:03.321Z,35.10
2018-04-28T16:18:31.558Z,33.90
2018-04-28T16:20:59.826Z,34.00
2018-04-28T16:23:28.046Z,33.90
2018-04-28T16:25:57.046Z,33.50
2018-04-28T16:28:25.297Z,33.50
2018-04-28T16:30:53.551Z,33.40
2018-04-28T16:33:21.793Z,33.70
2018-04-28T16:35:50.029Z,34.00
2018-04-28T16:38:19.104Z,32.30
2018-04-28T16:40:47.372Z,32.30
2018-04-28T16:43:16.242Z,32.20
2018-04-28T16:45:44.514Z,29.70
2018-04-28T16:48:12.729Z,29.50
2018-04-28T16:50:41.045Z,28.80
2018-04-28T16:53:09.203Z,28.40
2018-04-28T16:55:38.240Z,25.60
2018-04-28T16:58:06.455Z,25.60
2018-04-28T17:00:34.676Z,25.40
2018-04-28T17:03:02.910Z,25.80
2018-04-28T17:05:31.236Z,26.10
2018-04-28T17:07:59.526Z,25.60
2018-04-28T17:10:27.764Z,25.00
2018-04-28T17:12:56.039Z,25.20
2018-04-28T17:15:24.336Z,25.50
2018-04-28T17:17:53.963Z,25.30
2018-04-28T17:20:22.212Z,25.30
2018-04-28T17:22:50.448Z,25.60
2018-04-28T17:25:18.690Z,25.90
2018-04-28T17:27:46.924Z,25.80
2018-04-28T17:30:15.942Z,25.90
2018-04-28T17:32:44.209Z,25.90
2018-04-28T17:35:13.253Z,26.70
2018-04-28T17:37:41.487Z,26.60
2018-04-28T17:40:09.829Z,26.40
2018-04-28T17:42:38.005Z,26.90
2018-04-28T17:45:06.265Z,26.20
2018-04-28T17:47:34.512Z,26.10
2018-04-28T17:50:02.776Z,26.00
2018-04-28T17:52:30.978Z,25.90
2018-04-28T17:54:59.250Z,26.10
2018-04-28T17:57:27.465Z,26.30
2018-04-28T17:59:55.715Z,26.50
2018-04-28T18:02:23.959Z,26.60
2018-04-28T18:04:52.204Z,26.90
2018-04-28T18:07:20.519Z,26.60
2018-04-28T18:09:48.683Z,26.70
2018-04-28T18:12:16.958Z,26.70
2018-04-28T18:14:45.206Z,27.10
2018-04-28T18:17:14.236Z,27.50
2018-04-28T18:19:42.517Z,27.40
2018-04-28T18:22:10.784Z,27.30
2018-04-28T18:24:39.147Z,27.80
2018-04-28T18:27:07.542Z,28.00
2018-04-28T18:29:35.802Z,28.10
2018-04-28T18:32:04.779Z,28.40
2018-04-28T18:34:33.770Z,28.70
2018-04-28T18:37:02.081Z,28.70
2018-04-28T18:39:31.062Z,29.20
2018-04-28T18:41:59.348Z,29.20
2018-04-28T18:44:27.595Z,29.20
2018-04-28T18:46:55.840Z,29.30
2018-04-28T18:49:24.137Z,29.40
2018-04-28T18:51:52.437Z,29.90
2018-04-28T18:54:20.612Z,30.10
2018-04-28T18:56:49.648Z,30.40
2018-04-28T18:59:17.898Z,30.30
2018-04-28T19:01:46.152Z,31.50
2018-04-28T19:04:15.148Z,33.20
2018-04-28T19:06:43.429Z,33.10
2018-04-28T19:09:12.447Z,32.80
2018-04-28T19:11:40.773Z,32.80
2018-04-28T19:14:09.096Z,32.80
2018-04-28T19:16:37.321Z,32.30
2018-04-28T19:19:05.562Z,32.80
2018-04-28T19:21:33.780Z,32.80
2018-04-28T19:24:02.019Z,33.50
2018-04-28T19:26:30.243Z,34.20
2018-04-28T19:28:58.491Z,34.70
2018-04-28T19:31:26.720Z,35.90
2018-04-28T19:33:54.979Z,36.00
2018-04-28T19:36:23.983Z,35.70
2018-04-28T19:38:52.200Z,35.70
2018-04-28T19:41:20.559Z,34.80
2018-04-28T19:43:48.824Z,35.10
2018-04-28T19:46:17.088Z,35.60
2018-04-28T19:48:45.399Z,36.70
2018-04-28T19:51:13.664Z,38.80
2018-04-28T19:53:41.952Z,39.00
2018-04-28T19:56:10.180Z,39.80
2018-04-28T19:58:38.428Z,40.10
2018-04-28T20:01:06.647Z,40.40
2018-04-28T20:03:34.942Z,40.60
2018-04-28T20:06:03.180Z,40.60
2018-04-28T20:08:31.497Z,40.90
2018-04-28T20:10:59.722Z,41.40
2018-04-28T20:13:27.952Z,41.50
2018-04-28T20:15:56.195Z,41.80
2018-04-28T20:18:25.184Z,42.50
2018-04-28T20:20:54.241Z,42.60
2018-04-28T20:23:34.184Z,42.60
2018-04-28T20:26:02.587Z,43.10
2018-04-28T20:28:30.818Z,43.40
2018-04-28T20:30:59.068Z,43.60
2018-04-28T20:33:27.325Z,43.90
2018-04-28T20:35:55.566Z,44.30
2018-04-28T20:38:24.716Z,44.30
2018-04-28T20:40:53.754Z,44.90
2018-04-28T20:43:21.991Z,44.80
2018-04-28T20:45:50.257Z,45.20
2018-04-28T20:48:18.517Z,45.30
2018-04-28T20:50:46.730Z,45.50
2018-04-28T20:53:15.025Z,45.90
2018-04-28T20:55:43.272Z,46.70
2018-04-28T20:58:12.332Z,47.10
2018-04-28T21:00:40.573Z,47.00
2018-04-28T21:03:08.844Z,47.30
2018-04-28T21:05:37.098Z,47.30
2018-04-28T21:08:06.094Z,47.70
2018-04-28T21:10:35.100Z,48.10
2018-04-28T21:13:03.418Z,48.00
2018-04-28T21:15:31.627Z,48.50
2018-04-28T21:18:00.646Z,49.30
2018-04-28T21:20:28.915Z,49.30
2018-04-28T21:22:57.206Z,49.70
2018-04-28T21:25:25.407Z,50.00
2018-04-28T21:27:53.663Z,50.60
2018-04-28T21:30:21.927Z,51.10
2018-04-28T21:32:50.195Z,50.90
2018-04-28T21:35:19.197Z,50.90
2018-04-28T21:37:47.462Z,50.90
2018-04-28T21:40:15.675Z,50.70
2018-04-28T21:42:43.928Z,50.70
2018-04-28T21:45:12.374Z,50.60
2018-04-28T21:47:40.984Z,50.10
2018-04-28T21:50:09.264Z,50.60
2018-04-28T21:52:37.512Z,50.30
2018-04-28T21:55:05.744Z,50.10
2018-04-28T21:57:34.959Z,50.10
2018-04-28T22:00:03.195Z,50.10
2018-04-28T22:02:32.208Z,50.50
2018-04-28T22:05:00.432Z,49.80
2018-04-28T22:07:28.666Z,49.60
2018-04-28T22:09:56.900Z,50.30
2018-04-28T22:12:25.926Z,49.70
2018-04-28T22:14:54.148Z,49.70
2018-04-28T22:17:22.375Z,49.70
2018-04-28T22:19:50.617Z,49.90
2018-04-28T22:22:19.619Z,50.60
2018-04-28T22:24:48.631Z,50.90
2018-04-28T22:27:16.861Z,50.90
2018-04-28T22:29:45.203Z,51.10
2018-04-28T22:32:13.486Z,51.30
2018-04-28T22:34:41.737Z,51.20
2018-04-28T22:37:09.996Z,51.80
2018-04-28T22:39:39.029Z,51.30
2018-04-28T22:42:07.274Z,51.20
2018-04-28T22:44:35.528Z,50.80
2018-04-28T22:47:03.777Z,51.40
2018-04-28T22:49:32.002Z,51.50
2018-04-28T22:52:00.257Z,51.70
2018-04-28T22:54:28.547Z,51.80
2018-04-28T22:56:57.607Z,53.20
2018-04-28T22:59:25.816Z,53.20
2018-04-28T23:01:54.817Z,52.80
2018-04-28T23:04:23.044Z,52.80
2018-04-28T23:06:51.374Z,52.80
2018-04-28T23:09:19.569Z,52.90
2018-04-28T23:11:47.918Z,53.00
2018-04-28T23:14:16.144Z,53.50
2018-04-28T23:16:44.401Z,53.80
2018-04-28T23:19:12.620Z,53.80
2018-04-28T23:21:40.865Z,53.90
2018-04-28T23:24:09.106Z,53.90
2018-04-28T23:26:37.334Z,54.00
2018-04-28T23:29:05.571Z,54.60
2018-04-28T23:31:33.791Z,55.00
2018-04-28T23:34:02.035Z,55.00
2018-04-28T23:36:30.295Z,54.80
2018-04-28T23:38:58.562Z,54.90
2018-04-28T23:41:26.783Z,55.20
2018-04-28T23:43:55.077Z,55.70
2018-04-28T23:46:23.304Z,56.10
2018-04-28T23:48:51.549Z,56.30
2018-04-28T23:51:20.592Z,57.00
2018-04-28T23:53:48.809Z,56.90
2018-04-28T23:56:17.099Z,56.70
2018-04-28T23:58:45.329Z,56.60
